Time;durP1;ratioP1;P1;durP2;ratioP2;P2;SDS_P1;SDS_P2;PMS_P1;PMS_P2;Temp;Humidity;BMP_temperature;BMP_pressure;BME280_temperature;BME280_humidity;BME280_pressure;Samples;Min_cycle;Max_cycle;Signal;HPM_P1;HPM_P2
2024/05/01 00:01:05;;;;;;;8.20;6.25;;;15.50;83.30;;;;;;1879970;74;25584;-47
2024/05/01 00:03:32;;;;;;;;;;;15.50;83.40;;;;;;1878531;74;25880;-45
2024/05/01 00:06:00;;;;;;;;;;;15.40;83.30;;;;;;1880188;75;25763;-47
2024/05/01 00:08:26;;;;;;;;;;;15.30;83.20;;;;;;1888141;74;25144;-46
2024/05/01 00:10:53;;;;;;;;;;;15.20;83.50;;;;;;1885072;74;36564;-46
2024/05/01 00:13:21;;;;;;;8.97;6.50;;;15.20;83.50;;;;;;1871452;74;26754;-44
2024/05/01 00:15:48;;;;;;;8.93;7.50;;;15.10;84.20;;;;;;1887111;74;25957;-47
2024/05/01 00:18:16;;;;;;;8.73;7.10;;;15.20;83.80;;;;;;1882368;74;25975;-45
2024/05/01 00:20:43;;;;;;;14.20;6.93;;;15.20;83.40;;;;;;1878168;74;26998;-47
2024/05/01 00:23:11;;;;;;;15.90;7.30;;;15.20;82.60;;;;;;1878091;74;26036;-45
2024/05/01 00:25:38;;;;;;;10.20;8.20;;;15.20;83.40;;;;;;1881288;74;25858;-47
2024/05/01 00:28:06;;;;;;;8.03;7.10;;;15.20;84.70;;;;;;1882625;74;25979;-45
2024/05/01 00:30:33;;;;;;;8.47;7.60;;;15.30;84.80;;;;;;1869147;74;26248;-47
2024/05/01 00:33:01;;;;;;;8.63;6.50;;;15.10;84.90;;;;;;1883749;74;26373;-45
2024/05/01 00:35:28;;;;;;;7.97;5.97;;;15.00;84.70;;;;;;1870859;74;25909;-49
2024/05/01 00:37:55;;;;;;;;;;;14.90;84.80;;;;;;1882689;74;25867;-46
2024/05/01 00:40:22;;;;;;;10.90;8.10;;;14.90;84.80;;;;;;1877316;74;26231;-46
2024/05/01 00:42:53;;;;;;;;;;;14.80;85.30;;;;;;1887903;74;25613;-46
2024/05/01 00:45:20;;;;;;;;;;;14.70;85.60;;;;;;1896066;74;25609;-46
2024/05/01 00:47:48;;;;;;;;;;;14.80;85.60;;;;;;1894707;74;25135;-48
2024/05/01 00:50:16;;;;;;;;;;;14.70;85.60;;;;;;1875659;74;24903;-44
2024/05/01 00:52:44;;;;;;;13.77;7.10;;;14.70;85.40;;;;;;1879777;74;25654;-47
2024/05/01 00:55:13;;;;;;;9.00;7.10;;;14.80;85.00;;;;;;1883736;74;26008;-49
2024/05/01 00:57:41;;;;;;;9.20;7.00;;;14.70;85.70;;;;;;1881167;74;25990;-46
2024/05/01 01:00:09;;;;;;;9.93;7.10;;;14.70;85.30;;;;;;1881180;74;26053;-47
2024/05/01 01:02:37;;;;;;;9.53;7.00;;;14.60;85.20;;;;;;1886418;74;25942;-46
2024/05/01 01:05:05;;;;;;;9.83;7.53;;;14.60;84.30;;;;;;1881405;74;25980;-48
2024/05/01 01:07:32;;;;;;;;;;;14.60;84.30;;;;;;1889498;74;25888;-45
2024/05/01 01:09:59;;;;;;;;;;;14.60;84.70;;;;;;1873006;74;25916;-46
2024/05/01 01:12:25;;;;;;;;;;;14.60;83.80;;;;;;1869287;74;25889;-47
2024/05/01 01:14:52;;;;;;;;;;;14.60;84.40;;;;;;1882912;74;25755;-48
2024/05/01 01:17:19;;;;;;;;;;;14.50;84.00;;;;;;1880145;74;25121;-46
2024/05/01 01:19:46;;;;;;;;;;;14.50;83.90;;;;;;1881085;74;26043;-44
2024/05/01 01:22:13;;;;;;;;;;;14.60;83.40;;;;;;1892193;74;25587;-47
2024/05/01 01:24:40;;;;;;;;;;;14.60;83.10;;;;;;1880100;74;25559;-45
2024/05/01 01:27:06;;;;;;;;;;;14.70;84.00;;;;;;1882659;74;25089;-45
2024/05/01 01:29:33;;;;;;;;;;;14.70;83.90;;;;;;1878301;74;25293;-46
2024/05/01 01:32:00;;;;;;;;;;;14.60;83.40;;;;;;1894394;74;24981;-46
2024/05/01 01:34:27;;;;;;;;;;;14.60;83.70;;;;;;1889486;74;25101;-45
2024/05/01 01:36:54;;;;;;;;;;;14.60;83.70;;;;;;1907251;74;25676;-45
2024/05/01 01:39:21;;;;;;;;;;;14.70;84.40;;;;;;1899356;74;26253;-45
2024/05/01 01:41:48;;;;;;;;;;;14.70;84.00;;;;;;1886380;74;25848;-47
2024/05/01 01:44:15;;;;;;;;;;;14.60;83.00;;;;;;1874851;74;25629;-48
2024/05/01 01:46:42;;;;;;;;;;;14.50;84.20;;;;;;1880219;74;25530;-44
2024/05/01 01:49:08;;;;;;;;;;;14.50;84.60;;;;;;1907701;74;25561;-45
2024/05/01 01:51:35;;;;;;;;;;;14.50;84.70;;;;;;1884731;74;25678;-45
2024/05/01 01:54:02;;;;;;;;;;;14.50;84.80;;;;;;1888159;74;25590;-45
2024/05/01 01:56:29;;;;;;;;;;;14.50;85.00;;;;;;1884249;74;26263;-44
2024/05/01 01:58:56;;;;;;;;;;;14.40;84.70;;;;;;1887447;74;25684;-46
2024/05/01 02:01:22;;;;;;;;;;;14.50;85.10;;;;;;1887620;74;26757;-46
2024/05/01 02:03:50;;;;;;;;;;;14.30;86.10;;;;;;1877137;74;25712;-46
2024/05/01 02:06:17;;;;;;;;;;;14.30;86.30;;;;;;1875321;74;25816;-45
2024/05/01 02:08:44;;;;;;;;;;;14.40;86.40;;;;;;1883593;75;25759;-45
2024/05/01 02:11:14;;;;;;;;;;;14.30;85.20;;;;;;1899875;74;26012;-46
2024/05/01 02:13:42;;;;;;;;;;;14.30;84.60;;;;;;1897540;74;26346;-45
2024/05/01 02:16:13;;;;;;;9.17;7.10;;;14.20;84.80;;;;;;1888491;74;25779;-46
2024/05/01 02:18:40;;;;;;;;;;;14.10;85.90;;;;;;1889707;74;26056;-46
2024/05/01 02:21:07;;;;;;;;;;;14.00;85.90;;;;;;1888731;74;25769;-45
2024/05/01 02:23:35;;;;;;;;;;;14.10;84.80;;;;;;1893826;74;26237;-48
2024/05/01 02:26:02;;;;;;;7.30;6.60;;;14.00;85.70;;;;;;1881611;74;25762;-45
2024/05/01 02:28:29;;;;;;;;;;;14.00;86.30;;;;;;1888866;74;26273;-45
2024/05/01 02:30:56;;;;;;;;;;;13.90;87.20;;;;;;1893334;74;25561;-45
2024/05/01 02:33:23;;;;;;;;;;;13.80;87.40;;;;;;1892588;74;25543;-46
2024/05/01 02:35:50;;;;;;;;;;;13.80;87.40;;;;;;1897019;74;24845;-46
2024/05/01 02:38:16;;;;;;;;;;;13.90;86.50;;;;;;1895732;74;25345;-46
2024/05/01 02:40:43;;;;;;;;;;;13.80;85.90;;;;;;1897607;74;24952;-46
2024/05/01 02:43:10;;;;;;;;;;;13.70;86.90;;;;;;1891250;74;24974;-45
2024/05/01 02:45:37;;;;;;;;;;;13.70;86.70;;;;;;1898977;74;24876;-45
2024/05/01 02:48:04;;;;;;;;;;;13.60;86.10;;;;;;1907381;74;27461;-46
2024/05/01 02:50:33;;;;;;;;;;;13.50;86.90;;;;;;1886393;74;25065;-45
2024/05/01 02:53:00;;;;;;;;;;;13.50;87.40;;;;;;1882783;74;36130;-46
2024/05/01 02:55:27;;;;;;;;;;;13.50;87.20;;;;;;1908806;74;37586;-45
2024/05/01 02:57:53;;;;;;;;;;;13.50;87.00;;;;;;1890230;74;36008;-45
2024/05/01 03:00:20;;;;;;;;;;;13.50;87.90;;;;;;1892988;74;24738;-47
2024/05/01 03:02:47;;;;;;;;;;;13.50;88.00;;;;;;1883249;74;34972;-45
2024/05/01 03:05:14;;;;;;;;;;;13.60;88.70;;;;;;1902969;74;25735;-48
2024/05/01 03:07:44;;;;;;;;;;;13.50;87.90;;;;;;1880042;74;25681;-45
2024/05/01 03:10:11;;;;;;;;;;;13.60;85.60;;;;;;1885208;75;25957;-45
2024/05/01 03:12:41;;;;;;;;;;;13.60;84.80;;;;;;1905121;74;25782;-46
2024/05/01 03:15:08;;;;;;;;;;;13.50;86.50;;;;;;1902009;74;25973;-46
2024/05/01 03:17:35;;;;;;;;;;;13.50;86.60;;;;;;1900559;74;24785;-47
2024/05/01 03:20:03;;;;;;;;;;;13.50;87.00;;;;;;1887992;74;36006;-45
2024/05/01 03:22:30;;;;;;;;;;;13.40;87.00;;;;;;1886942;74;25119;-45
2024/05/01 03:24:56;;;;;;;;;;;13.40;86.70;;;;;;1890777;74;25845;-46
2024/05/01 03:27:23;;;;;;;;;;;13.40;88.20;;;;;;1878589;74;36109;-46
2024/05/01 03:29:50;;;;;;;;;;;13.40;86.80;;;;;;1900566;74;36084;-46
2024/05/01 03:32:17;;;;;;;;;;;13.50;86.80;;;;;;1899972;74;37582;-45
2024/05/01 03:34:44;;;;;;;;;;;13.40;86.00;;;;;;1894292;74;36498;-48
2024/05/01 03:37:10;;;;;;;;;;;13.40;87.30;;;;;;1876839;74;25714;-45
2024/05/01 03:39:39;;;;;;;;;;;13.50;86.50;;;;;;1881232;74;25689;-45
2024/05/01 03:42:05;;;;;;;;;;;13.40;86.80;;;;;;1888162;74;29797;-46
2024/05/01 03:44:32;;;;;;;;;;;13.40;87.00;;;;;;1886168;74;28844;-47
2024/05/01 03:46:59;;;;;;;;;;;13.50;86.80;;;;;;1888583;74;26761;-45
2024/05/01 03:49:26;;;;;;;;;;;13.50;85.80;;;;;;1885459;74;24917;-46
2024/05/01 03:51:53;;;;;;;;;;;13.50;85.90;;;;;;1894151;74;25896;-48
2024/05/01 03:54:20;;;;;;;10.20;6.27;;;13.50;86.30;;;;;;1894371;74;25232;-44
2024/05/01 03:56:50;;;;;;;;;;;13.50;85.80;;;;;;1888468;74;26076;-46
2024/05/01 03:59:18;;;;;;;8.40;6.60;;;13.40;85.60;;;;;;1879233;74;25298;-44
2024/05/01 04:01:45;;;;;;;8.03;6.60;;;13.30;87.00;;;;;;1886125;74;25862;-45
2024/05/01 04:04:13;;;;;;;13.33;7.10;;;13.20;86.90;;;;;;1887519;74;26492;-45
2024/05/01 04:06:44;;;;;;;14.87;7.10;;;13.30;87.30;;;;;;1876907;74;24900;-45
2024/05/01 04:09:13;;;;;;;9.90;7.40;;;13.30;88.20;;;;;;1874820;74;26016;-44
2024/05/01 04:11:41;;;;;;;8.43;6.53;;;13.30;88.10;;;;;;1872581;74;25990;-45
2024/05/01 04:14:08;;;;;;;;;;;13.30;88.30;;;;;;1877757;74;25910;-46
2024/05/01 04:16:35;;;;;;;;;;;13.20;89.90;;;;;;1858107;74;25776;-45
2024/05/01 04:19:02;;;;;;;;;;;13.30;88.70;;;;;;1887868;74;25020;-45
2024/05/01 04:21:29;;;;;;;;;;;13.40;87.90;;;;;;1879814;74;26879;-45
2024/05/01 04:23:56;;;;;;;;;;;13.40;86.80;;;;;;1878447;74;28803;-45
2024/05/01 04:26:22;;;;;;;;;;;13.40;87.70;;;;;;1882217;74;35133;-48
2024/05/01 04:28:50;;;;;;;;;;;13.50;87.60;;;;;;1888194;74;37542;-45
2024/05/01 04:31:17;;;;;;;;;;;13.50;86.90;;;;;;1885557;74;36972;-46
2024/05/01 04:33:44;;;;;;;;;;;13.60;86.10;;;;;;1895070;74;36029;-44
2024/05/01 04:36:11;;;;;;;;;;;13.60;86.30;;;;;;1889477;74;36140;-47
2024/05/01 04:38:38;;;;;;;;;;;13.70;87.10;;;;;;1891841;74;37027;-45
2024/05/01 04:41:07;;;;;;;;;;;13.80;87.30;;;;;;1886650;74;36014;-44
2024/05/01 04:43:34;;;;;;;13.80;7.55;;;13.80;86.90;;;;;;1890371;74;25353;-45
2024/05/01 04:46:02;;;;;;;11.03;7.13;;;13.80;86.90;;;;;;1876856;74;37449;-46
2024/05/01 04:48:29;;;;;;;10.37;6.47;;;13.90;86.80;;;;;;1877422;74;25930;-45
2024/05/01 04:50:57;;;;;;;7.10;6.40;;;14.00;86.30;;;;;;1886162;74;25913;-47
2024/05/01 04:53:25;;;;;;;9.87;7.60;;;14.10;85.30;;;;;;1889877;74;25547;-46
2024/05/01 04:55:52;;;;;;;8.90;6.50;;;14.00;86.40;;;;;;1885864;74;25936;-46
2024/05/01 04:58:21;;;;;;;11.17;7.00;;;14.10;87.10;;;;;;1877827;74;25984;-44
2024/05/01 05:00:49;;;;;;;6.97;6.10;;;14.30;86.00;;;;;;1893473;74;25959;-71
2024/05/01 05:03:16;;;;;;;8.70;6.90;;;14.40;85.30;;;;;;1892457;74;26244;-46
2024/05/01 05:05:44;;;;;;;11.23;7.17;;;14.50;84.40;;;;;;1887055;74;25402;-46
2024/05/01 05:08:12;;;;;;;7.53;6.10;;;14.70;84.00;;;;;;1878998;74;26012;-45
2024/05/01 05:10:39;;;;;;;8.17;6.20;;;14.90;83.50;;;;;;1885327;74;26048;-46
2024/05/01 05:13:07;;;;;;;10.60;7.87;;;15.10;84.00;;;;;;1884463;75;26000;-45
2024/05/01 05:15:34;;;;;;;7.23;6.20;;;15.10;81.50;;;;;;1888130;75;26116;-45
2024/05/01 05:18:02;;;;;;;8.27;7.40;;;15.20;81.90;;;;;;1876319;75;26479;-48
2024/05/01 05:20:29;;;;;;;10.03;7.50;;;15.30;81.40;;;;;;1884212;75;25924;-45
2024/05/01 05:22:57;;;;;;;9.40;6.40;;;15.40;81.40;;;;;;1876127;75;25907;-45
2024/05/01 05:25:24;;;;;;;13.40;8.67;;;15.70;80.00;;;;;;1859438;75;25972;-47
2024/05/01 05:27:52;;;;;;;9.70;7.83;;;15.90;78.90;;;;;;1877758;75;26400;-45
2024/05/01 05:30:19;;;;;;;8.10;7.30;;;15.90;78.00;;;;;;1879564;75;25954;-45
2024/05/01 05:32:47;;;;;;;11.23;7.27;;;16.10;78.50;;;;;;1885803;75;26006;-47
2024/05/01 05:35:14;;;;;;;10.90;7.80;;;16.30;77.40;;;;;;1875803;75;26012;-46
2024/05/01 05:37:42;;;;;;;9.30;7.40;;;16.60;76.30;;;;;;1881734;75;26398;-45
2024/05/01 05:40:10;;;;;;;7.47;6.67;;;16.80;75.30;;;;;;1869672;75;26473;-47
2024/05/01 05:42:37;;;;;;;7.20;6.23;;;16.90;74.70;;;;;;1857844;75;25733;-48
2024/05/01 05:45:05;;;;;;;11.50;6.33;;;17.00;73.90;;;;;;1872686;75;26522;-46
2024/05/01 05:47:32;;;;;;;10.83;6.87;;;16.90;73.60;;;;;;1873131;75;25965;-46
2024/05/01 05:50:00;;;;;;;8.50;6.80;;;16.90;72.60;;;;;;1873100;75;26489;-46
2024/05/01 05:52:27;;;;;;;9.90;6.70;;;16.70;75.50;;;;;;1872738;75;25958;-49
2024/05/01 05:54:55;;;;;;;9.23;7.30;;;16.80;75.30;;;;;;1877340;75;25994;-44
2024/05/01 05:57:22;;;;;;;9.00;6.50;;;16.90;74.90;;;;;;1878163;75;25964;-46
2024/05/01 05:59:50;;;;;;;12.63;7.53;;;16.70;73.10;;;;;;1875489;75;26039;-46
2024/05/01 06:02:17;;;;;;;10.10;6.53;;;16.60;75.70;;;;;;1871905;75;26011;-46
2024/05/01 06:04:45;;;;;;;13.10;7.80;;;16.80;74.80;;;;;;1877154;75;25945;-45
2024/05/01 06:07:12;;;;;;;8.43;6.80;;;17.00;74.00;;;;;;1882975;75;26409;-48
2024/05/01 06:09:40;;;;;;;11.10;7.53;;;17.20;74.20;;;;;;1895629;75;25886;-46
2024/05/01 06:12:07;;;;;;;10.57;7.27;;;17.20;72.70;;;;;;1882155;75;26017;-46
2024/05/01 06:14:35;;;;;;;9.33;7.07;;;17.30;73.00;;;;;;1875629;75;25982;-46
2024/05/01 06:17:02;;;;;;;9.57;6.90;;;17.30;73.00;;;;;;1849784;75;25520;-46
2024/05/01 06:19:30;;;;;;;8.80;7.10;;;17.20;73.30;;;;;;1874344;75;26471;-47
2024/05/01 06:21:57;;;;;;;7.83;6.57;;;17.30;72.20;;;;;;1879186;75;25935;-45
2024/05/01 06:24:25;;;;;;;9.53;7.47;;;17.30;73.00;;;;;;1865265;75;25933;-48
2024/05/01 06:26:52;;;;;;;9.27;6.70;;;17.50;73.10;;;;;;1864164;75;25989;-46
2024/05/01 06:29:20;;;;;;;10.17;7.70;;;17.80;72.30;;;;;;1872986;75;26431;-48
2024/05/01 06:31:47;;;;;;;8.90;6.80;;;18.20;70.50;;;;;;1866773;75;25939;-45
2024/05/01 06:34:15;;;;;;;9.70;6.70;;;18.50;69.50;;;;;;1886488;75;26024;-45
2024/05/01 06:36:43;;;;;;;8.93;6.67;;;19.10;68.00;;;;;;1859013;75;25928;-46
2024/05/01 06:39:10;;;;;;;8.90;6.63;;;19.70;65.30;;;;;;1874454;75;26087;-46
2024/05/01 06:41:38;;;;;;;10.50;7.80;;;20.50;61.30;;;;;;1873962;75;25908;-46
2024/05/01 06:44:05;;;;;;;12.80;6.67;;;20.70;59.00;;;;;;1855701;75;26497;-47
2024/05/01 06:46:33;;;;;;;10.30;6.77;;;21.20;57.30;;;;;;1878692;75;26040;-47
2024/05/01 06:49:00;;;;;;;14.20;7.60;;;21.50;56.60;;;;;;1885436;75;25875;-48
2024/05/01 06:51:28;;;;;;;15.30;6.00;;;21.40;55.00;;;;;;1874372;75;25914;-47
2024/05/01 06:53:55;;;;;;;10.67;6.70;;;21.70;54.70;;;;;;1873173;75;25963;-46
2024/05/01 06:56:23;;;;;;;11.60;6.83;;;21.90;54.20;;;;;;1880495;75;26427;-48
2024/05/01 06:58:50;;;;;;;9.83;6.13;;;21.50;54.00;;;;;;1883620;75;25810;-45
2024/05/01 07:01:18;;;;;;;10.07;6.30;;;21.30;55.00;;;;;;1871262;75;25999;-47
2024/05/01 07:03:45;;;;;;;16.93;7.00;;;21.00;55.60;;;;;;1877918;75;25981;-47
2024/05/01 07:06:13;;;;;;;15.90;6.57;;;21.40;56.20;;;;;;1869259;75;25962;-45
2024/05/01 07:08:40;;;;;;;10.77;6.40;;;21.70;54.90;;;;;;1878879;75;25983;-43
2024/05/01 07:11:08;;;;;;;9.60;6.43;;;21.90;54.80;;;;;;1876096;75;25981;-47
2024/05/01 07:13:35;;;;;;;11.93;7.13;;;21.70;54.20;;;;;;1888127;74;26551;-46
2024/05/01 07:16:04;;;;;;;13.57;6.40;;;22.30;54.50;;;;;;1879974;74;25935;-44
2024/05/01 07:18:31;;;;;;;;;;;22.90;53.30;;;;;;1879880;74;26004;-46
2024/05/01 07:20:58;;;;;;;10.07;6.97;;;23.50;51.90;;;;;;1881811;74;25923;-46
2024/05/01 07:23:26;;;;;;;16.07;7.03;;;23.30;49.80;;;;;;1872053;74;25845;-45
2024/05/01 07:25:53;;;;;;;14.60;7.50;;;23.10;49.50;;;;;;1882710;74;25981;-46
2024/05/01 07:28:21;;;;;;;9.37;7.20;;;23.30;50.10;;;;;;1882709;74;26425;-47
2024/05/01 07:30:48;;;;;;;11.70;7.20;;;23.70;49.70;;;;;;1887321;74;25922;-47
2024/05/01 07:33:16;;;;;;;10.10;7.37;;;24.00;48.10;;;;;;1882479;74;25988;-44
2024/05/01 07:35:44;;;;;;;14.90;7.13;;;23.40;48.40;;;;;;1881216;74;26042;-47
2024/05/01 07:38:11;;;;;;;14.53;6.80;;;23.60;49.60;;;;;;1884053;74;26014;-47
2024/05/01 07:40:39;;;;;;;10.75;6.40;;;24.50;48.90;;;;;;1870862;74;25919;-47
2024/05/01 07:43:10;;;;;;;;;;;25.20;47.50;;;;;;1883727;74;28797;-45
2024/05/01 07:45:43;;;;;;;12.17;6.73;;;25.40;45.20;;;;;;1867876;74;30647;-46
2024/05/01 07:48:11;;;;;;;16.70;6.60;;;25.70;45.30;;;;;;1883139;74;25955;-47
2024/05/01 07:50:39;;;;;;;9.80;6.60;;;25.90;44.60;;;;;;1880269;74;26879;-47
2024/05/01 07:53:05;;;;;;;;;;;26.10;42.90;;;;;;1877038;74;26193;-46
2024/05/01 07:55:32;;;;;;;;;;;26.20;43.20;;;;;;1883376;74;25708;-47
2024/05/01 07:57:59;;;;;;;;;;;26.60;42.60;;;;;;1873338;74;28023;-47
2024/05/01 08:00:26;;;;;;;9.40;7.80;;;26.70;42.20;;;;;;1874068;74;25677;-47
2024/05/01 08:02:54;;;;;;;14.50;6.90;;;26.70;41.60;;;;;;1877396;74;26974;-46
2024/05/01 08:05:21;;;;;;;13.60;8.30;;;27.00;41.60;;;;;;1885234;74;29365;-46
2024/05/01 08:07:49;;;;;;;14.60;7.13;;;26.70;42.60;;;;;;1890673;74;26025;-48
2024/05/01 08:10:17;;;;;;;;;;;27.00;40.90;;;;;;1878137;74;26452;-48
2024/05/01 08:12:44;;;;;;;13.47;9.47;;;26.90;41.40;;;;;;1876818;74;26017;-46
2024/05/01 08:15:12;;;;;;;11.43;7.87;;;27.00;40.40;;;;;;1878644;74;25995;-47
2024/05/01 08:17:39;;;;;;;8.80;7.85;;;26.60;41.20;;;;;;1874632;74;25915;-48
2024/05/01 08:20:08;;;;;;;11.60;10.20;;;26.30;42.30;;;;;;1876635;74;26373;-47
2024/05/01 08:22:36;;;;;;;13.00;8.93;;;26.20;40.60;;;;;;1884287;74;25435;-47
2024/05/01 08:25:03;;;;;;;13.85;8.40;;;26.10;42.10;;;;;;1884593;74;25917;-45
2024/05/01 08:27:30;;;;;;;;;;;26.30;41.50;;;;;;1870404;74;25891;-45
2024/05/01 08:29:58;;;;;;;13.97;9.40;;;26.20;43.40;;;;;;1877409;74;24941;-46
2024/05/01 08:32:25;;;;;;;18.50;10.87;;;26.00;43.50;;;;;;1883353;74;26324;-45
2024/05/01 08:34:53;;;;;;;13.33;9.27;;;26.00;42.60;;;;;;1879459;74;25947;-62
2024/05/01 08:37:23;;;;;;;12.17;10.40;;;25.60;42.70;;;;;;1879124;74;25977;-58
2024/05/01 08:39:50;;;;;;;14.23;10.10;;;25.10;44.10;;;;;;1808978;77;26505;-63
2024/05/01 08:42:17;;;;;;;11.17;10.00;;;24.40;45.50;;;;;;1845887;76;25992;-64
2024/05/01 08:44:49;;;;;;;16.03;11.20;;;24.10;46.70;;;;;;1842172;76;26030;-64
2024/05/01 08:47:19;;;;;;;16.63;12.07;;;23.90;49.10;;;;;;1847867;76;25954;-63
2024/05/01 08:49:48;;;;;;;14.57;11.00;;;23.50;48.30;;;;;;1870968;74;25877;-64
2024/05/01 08:52:17;;;;;;;12.83;10.17;;;23.50;49.40;;;;;;1875295;74;26025;-63
2024/05/01 08:54:45;;;;;;;16.80;11.30;;;23.50;50.70;;;;;;1851088;76;26459;-62
2024/05/01 08:57:14;;;;;;;16.97;11.17;;;23.50;51.30;;;;;;1878549;74;25984;-62
2024/05/01 08:59:43;;;;;;;13.80;12.50;;;23.50;49.70;;;;;;1882646;74;26042;-62
2024/05/01 09:02:22;;;;;;;14.73;10.90;;;23.40;49.20;;;;;;1883092;74;26012;-62
2024/05/01 09:04:47;;;;;;;12.40;11.10;;;23.40;49.90;;;;;;1872529;74;26540;-62
2024/05/01 09:07:15;;;;;;;18.77;11.27;;;23.20;50.00;;;;;;1871054;74;26009;-59
2024/05/01 09:09:43;;;;;;;21.73;13.03;;;23.10;50.90;;;;;;1870307;74;25964;-63
2024/05/01 09:12:10;;;;;;;14.10;12.33;;;23.10;50.70;;;;;;1876409;74;25985;-63
2024/05/01 09:14:38;;;;;;;12.53;9.10;;;23.00;50.80;;;;;;1879188;74;26390;-62
2024/05/01 09:17:06;;;;;;;14.53;11.37;;;23.30;51.20;;;;;;1876674;75;25895;-63
2024/05/01 09:19:37;;;;;;;15.10;11.53;;;23.50;50.20;;;;;;1879584;75;26098;-63
2024/05/01 09:22:19;;;;;;;12.70;11.00;;;23.60;50.60;;;;;;1889911;74;26482;-62
2024/05/01 09:24:47;;;;;;;14.77;11.40;;;23.70;51.10;;;;;;1869513;75;26053;-62
2024/05/01 09:27:16;;;;;;;15.20;9.87;;;23.60;49.10;;;;;;1866599;74;25963;-63
2024/05/01 09:29:43;;;;;;;16.20;10.63;;;23.60;49.80;;;;;;1870502;75;26409;-63
2024/05/01 09:32:11;;;;;;;14.50;10.63;;;23.70;50.50;;;;;;1873849;74;25963;-64
2024/05/01 09:34:38;;;;;;;14.13;12.73;;;23.90;49.80;;;;;;1845138;76;26024;-63
2024/05/01 09:37:06;;;;;;;12.70;9.97;;;24.00;48.80;;;;;;1835651;77;26469;-63
2024/05/01 09:39:40;;;;;;;11.17;9.40;;;24.00;48.80;;;;;;1881437;75;26235;-62
2024/05/01 09:42:08;;;;;;;15.60;11.30;;;24.00;49.10;;;;;;1878008;74;26343;-62
2024/05/01 09:44:37;;;;;;;13.50;10.80;;;23.80;49.20;;;;;;1877331;74;26031;-65
2024/05/01 09:47:07;;;;;;;12.93;11.47;;;23.90;49.00;;;;;;1885158;74;25939;-63
2024/05/01 09:49:36;;;;;;;14.50;10.70;;;24.00;49.60;;;;;;1881365;75;25988;-64
2024/05/01 09:52:05;;;;;;;15.37;11.87;;;24.10;49.20;;;;;;1881111;75;26022;-63
2024/05/01 09:54:33;;;;;;;16.27;10.23;;;24.20;48.90;;;;;;1884214;74;25976;-64
2024/05/01 09:57:03;;;;;;;14.37;11.40;;;24.00;49.30;;;;;;1877806;74;26009;-62
2024/05/01 09:59:30;;;;;;;20.03;11.20;;;23.80;48.50;;;;;;1860515;74;26483;-60
2024/05/01 10:01:59;;;;;;;12.27;10.90;;;23.90;49.80;;;;;;1883908;75;25930;-61
2024/05/01 10:04:27;;;;;;;14.67;11.27;;;23.90;49.70;;;;;;1879647;74;25992;-63
2024/05/01 10:06:55;;;;;;;15.80;12.30;;;23.70;49.60;;;;;;1836368;76;26356;-61
2024/05/01 10:09:27;;;;;;;14.80;11.53;;;23.50;50.20;;;;;;1885975;75;26458;-60
2024/05/01 10:12:03;;;;;;;15.83;11.60;;;23.60;51.20;;;;;;1875768;75;26424;-62
2024/05/01 10:14:40;;;;;;;15.63;9.60;;;23.70;50.00;;;;;;1878192;74;26426;-61
2024/05/01 10:17:14;;;;;;;13.07;8.37;;;23.90;50.50;;;;;;1873854;74;26375;-61
2024/05/01 10:19:59;;;;;;;15.43;11.70;;;24.10;50.20;;;;;;1885211;74;26466;-61
2024/05/01 10:22:26;;;;;;;12.40;11.10;;;24.20;49.30;;;;;;1888568;74;26005;-61
2024/05/01 10:25:01;;;;;;;14.97;12.77;;;24.20;49.90;;;;;;1889634;74;26378;-62
2024/05/01 10:27:29;;;;;;;16.00;11.10;;;24.10;49.20;;;;;;1874043;74;26014;-60
2024/05/01 10:29:56;;;;;;;13.90;12.07;;;24.20;50.10;;;;;;1867627;74;26436;-60
2024/05/01 10:32:24;;;;;;;16.20;11.80;;;24.20;49.50;;;;;;1871365;74;26045;-62
2024/05/01 10:34:55;;;;;;;15.30;13.17;;;24.20;49.70;;;;;;1870295;74;25900;-62
2024/05/01 10:37:23;;;;;;;16.43;12.53;;;24.10;48.70;;;;;;1868109;74;26455;-62
2024/05/01 10:39:52;;;;;;;16.30;12.53;;;24.00;48.60;;;;;;1871221;74;25917;-62
2024/05/01 10:42:20;;;;;;;15.93;12.50;;;24.00;49.60;;;;;;1868403;74;25916;-60
2024/05/01 10:44:51;;;;;;;14.97;11.43;;;24.00;48.80;;;;;;1862177;74;25952;-60
2024/05/01 10:47:19;;;;;;;11.00;9.43;;;24.00;50.30;;;;;;1866957;74;26340;-62
2024/05/01 10:49:47;;;;;;;17.57;12.60;;;24.20;49.60;;;;;;1863165;74;26071;-61
2024/05/01 10:52:14;;;;;;;13.47;11.17;;;24.30;49.10;;;;;;1865109;74;26201;-60
2024/05/01 10:54:42;;;;;;;14.20;10.73;;;24.40;49.80;;;;;;1865162;74;26434;-62
2024/05/01 10:57:11;;;;;;;13.50;10.90;;;24.40;49.80;;;;;;1865477;74;26476;-62
2024/05/01 10:59:38;;;;;;;20.47;11.63;;;24.60;49.60;;;;;;1865709;74;25923;-59
2024/05/01 11:02:06;;;;;;;12.80;11.50;;;24.60;48.80;;;;;;1862031;74;26606;-60
2024/05/01 11:04:35;;;;;;;15.67;13.67;;;24.60;49.10;;;;;;1872392;74;26438;-61
2024/05/01 11:07:05;;;;;;;13.30;12.10;;;24.40;47.80;;;;;;1866457;74;25941;-62
2024/05/01 11:09:33;;;;;;;17.43;13.07;;;24.50;49.50;;;;;;1859985;74;25939;-61
2024/05/01 11:12:03;;;;;;;16.87;12.13;;;24.60;48.80;;;;;;1871861;74;27002;-62
2024/05/01 11:14:31;;;;;;;15.00;9.80;;;24.70;49.10;;;;;;1861489;74;25914;-62
2024/05/01 11:16:59;;;;;;;16.30;11.63;;;24.80;49.00;;;;;;1875256;74;26019;-61
2024/05/01 11:19:27;;;;;;;15.97;12.10;;;24.80;49.10;;;;;;1863536;74;25877;-60
2024/05/01 11:21:54;;;;;;;12.47;9.57;;;24.80;48.60;;;;;;1872190;74;25940;-61
2024/05/01 11:24:22;;;;;;;15.57;13.00;;;24.80;49.60;;;;;;1864480;74;25971;-62
2024/05/01 11:26:49;;;;;;;14.70;13.20;;;24.90;48.40;;;;;;1870846;74;26077;-62
2024/05/01 11:29:17;;;;;;;13.67;11.63;;;24.90;49.50;;;;;;1870885;74;26125;-61
2024/05/01 11:31:44;;;;;;;15.60;14.07;;;24.90;49.20;;;;;;1883791;74;25903;-61
2024/05/01 11:34:12;;;;;;;18.73;12.67;;;24.90;48.20;;;;;;1876302;74;25977;-62
2024/05/01 11:36:39;;;;;;;14.60;10.73;;;24.80;48.60;;;;;;1869189;74;26448;-62
2024/05/01 11:39:07;;;;;;;11.83;10.07;;;24.90;49.10;;;;;;1863639;74;26597;-61
2024/05/01 11:41:35;;;;;;;13.13;11.67;;;25.00;49.00;;;;;;1860549;74;26488;-61
2024/05/01 11:44:02;;;;;;;13.03;11.70;;;25.00;49.30;;;;;;1826913;77;25983;-60
2024/05/01 11:46:30;;;;;;;12.93;11.63;;;25.00;48.30;;;;;;1842457;76;26309;-61
2024/05/01 11:48:57;;;;;;;14.53;10.93;;;25.00;47.70;;;;;;1848337;76;26085;-61
2024/05/01 11:51:25;;;;;;;15.00;10.53;;;25.00;49.20;;;;;;1839981;77;25968;-61
2024/05/01 11:53:52;;;;;;;11.67;10.57;;;25.00;48.60;;;;;;1843078;77;26009;-61
2024/05/01 11:56:20;;;;;;;16.00;10.60;;;25.10;49.00;;;;;;1822212;77;26319;-61
2024/05/01 11:58:47;;;;;;;18.97;11.43;;;25.20;48.50;;;;;;1808902;77;26043;-60
2024/05/01 12:01:15;;;;;;;11.47;9.80;;;25.00;47.80;;;;;;1830387;77;26428;-58
2024/05/01 12:03:44;;;;;;;13.53;11.00;;;24.90;49.30;;;;;;1814990;77;26009;-61
2024/05/01 12:06:12;;;;;;;12.47;9.70;;;25.00;48.80;;;;;;1829105;77;25979;-62
2024/05/01 12:08:40;;;;;;;10.70;9.10;;;25.00;49.70;;;;;;1827887;77;25967;-61
2024/05/01 12:11:08;;;;;;;13.00;9.80;;;25.10;48.60;;;;;;1842732;76;25975;-60
2024/05/01 12:13:36;;;;;;;11.50;10.23;;;25.10;48.20;;;;;;1851074;76;25962;-61
2024/05/01 12:16:04;;;;;;;11.53;10.43;;;25.10;47.80;;;;;;1833550;76;26009;-59
2024/05/01 12:18:31;;;;;;;13.60;11.40;;;25.10;48.60;;;;;;1841229;76;25920;-61
2024/05/01 12:21:10;;;;;;;12.50;9.57;;;25.10;50.30;;;;;;1835898;76;26465;-61
2024/05/01 12:23:40;;;;;;;16.40;10.53;;;25.20;49.30;;;;;;1825394;76;26635;-61
2024/05/01 12:26:13;;;;;;;20.90;9.20;;;25.20;49.70;;;;;;1841793;76;26047;-61
2024/05/01 12:28:41;;;;;;;12.83;9.80;;;25.20;50.10;;;;;;1841188;76;26408;-62
2024/05/01 12:31:24;;;;;;;10.40;8.20;;;25.30;49.10;;;;;;1826388;78;26115;-62
2024/05/01 12:33:51;;;;;;;10.43;9.27;;;25.40;51.00;;;;;;1811737;78;26082;-61
2024/05/01 12:36:19;;;;;;;10.67;7.33;;;25.50;48.50;;;;;;1838472;76;26385;-61
2024/05/01 12:38:47;;;;;;;13.07;8.20;;;25.60;48.90;;;;;;1830618;76;26020;-62
2024/05/01 12:41:17;;;;;;;16.07;10.07;;;25.60;48.00;;;;;;1878916;75;26000;-61
2024/05/01 12:43:46;;;;;;;12.70;10.23;;;25.60;48.00;;;;;;1886577;75;25951;-62
2024/05/01 12:46:32;;;;;;;14.47;11.73;;;25.60;47.10;;;;;;1902363;75;25967;-61
2024/05/01 12:49:14;;;;;;;12.57;8.73;;;25.70;49.10;;;;;;1886695;75;25935;-61
2024/05/01 12:51:54;;;;;;;12.33;9.70;;;25.70;47.10;;;;;;1873610;75;25973;-62
2024/05/01 12:54:25;;;;;;;14.37;8.87;;;25.80;46.60;;;;;;1855058;76;25916;-63
2024/05/01 12:56:52;;;;;;;14.07;10.77;;;25.60;47.00;;;;;;1837959;76;26502;-63
2024/05/01 12:59:20;;;;;;;12.33;10.70;;;25.50;48.20;;;;;;1857732;76;26038;-62
2024/05/01 13:01:50;;;;;;;12.87;10.17;;;25.60;49.30;;;;;;1855209;76;26048;-61
2024/05/01 13:04:26;;;;;;;13.43;8.43;;;25.70;49.10;;;;;;1829649;76;26046;-60
2024/05/01 13:06:53;;;;;;;12.03;7.00;;;25.80;49.10;;;;;;1832002;76;25949;-61